Time;durP1;ratioP1;P1;durP2;ratioP2;P2;SDS_P1;SDS_P2;PMS_P1;PMS_P2;Temp;Humidity;BMP_temperature;BMP_pressure;BME280_temperature;BME280_humidity;BME280_pressure;Samples;Min_cycle;Max_cycle;Signal;HPM_P1;HPM_P2
2021/03/24 00:01:21;;;;;;;;;;;1.60;99.90;;;;;;5068384;28;20426;-70
2021/03/24 00:03:47;;;;;;;;;;;1.50;99.90;;;;;;5069307;28;20323;-69
2021/03/24 00:06:13;;;;;;;;;;;1.50;99.90;;;;;;5069592;28;19916;-69
2021/03/24 00:08:38;;;;;;;;;;;1.50;99.90;;;;;;5069881;28;19909;-69
2021/03/24 00:11:05;;;;;;;;;;;1.50;99.90;;;;;;5068329;28;19920;-69
2021/03/24 00:13:30;;;;;;;;;;;1.50;99.90;;;;;;5069434;28;20006;-69
2021/03/24 00:15:56;;;;;;;;;;;1.50;99.90;;;;;;5067656;28;19916;-70
2021/03/24 00:18:21;;;;;;;;;;;1.60;99.90;;;;;;5069327;28;19950;-71
2021/03/24 00:20:47;;;;;;;;;;;1.50;99.90;;;;;;5068965;28;19959;-70
2021/03/24 00:23:13;;;;;;;;;;;1.40;99.90;;;;;;5069628;28;19916;-69
2021/03/24 00:25:38;;;;;;;;;;;1.30;99.90;;;;;;5068776;28;19908;-70
2021/03/24 00:28:05;;;;;;;;;;;1.30;99.90;;;;;;5069446;28;19916;-69
2021/03/24 00:30:35;;;;;;;;;;;1.20;99.90;;;;;;5067491;28;19991;-69
2021/03/24 00:33:02;;;;;;;;;;;1.20;99.90;;;;;;5069403;28;19918;-69
2021/03/24 00:35:27;;;;;;;;;;;1.10;99.90;;;;;;5068525;28;19912;-69
2021/03/24 00:37:53;;;;;;;;;;;1.10;99.90;;;;;;5069224;28;19930;-69
2021/03/24 00:40:23;;;;;;;;;;;1.10;99.90;;;;;;5068053;28;20416;-69
2021/03/24 00:42:49;;;;;;;;;;;1.10;99.90;;;;;;5068938;28;19934;-70
2021/03/24 00:45:15;;;;;;;;;;;1.20;99.90;;;;;;5068981;28;19908;-70
2021/03/24 00:47:41;;;;;;;;;;;1.20;99.90;;;;;;5068446;28;19931;-69
2021/03/24 00:50:07;;;;;;;;;;;1.20;99.90;;;;;;5067529;28;20334;-70
2021/03/24 00:52:33;;;;;;;;;;;1.20;99.90;;;;;;5068947;28;19977;-69
2021/03/24 00:54:58;;;;;;;;;;;1.10;99.90;;;;;;5068251;28;20360;-69
2021/03/24 00:57:24;;;;;;;;;;;1.10;99.90;;;;;;5068123;28;19916;-68
2021/03/24 00:59:50;;;;;;;;;;;1.10;99.90;;;;;;5067302;28;20499;-70
2021/03/24 01:02:15;;;;;;;;;;;1.20;99.90;;;;;;5068355;28;19959;-70
2021/03/24 01:04:41;;;;;;;;;;;1.20;99.90;;;;;;5068384;28;20003;-70
2021/03/24 01:07:08;;;;;;;;;;;1.20;99.90;;;;;;5068843;28;20043;-69
2021/03/24 01:09:34;;;;;;;;;;;1.10;99.90;;;;;;5067569;28;19956;-70
2021/03/24 01:11:59;;;;;;;;;;;1.10;99.90;;;;;;5068277;28;19971;-69
2021/03/24 01:14:25;;;;;;;;;;;1.10;99.90;;;;;;5068417;28;19912;-69
2021/03/24 01:16:50;;;;;;;;;;;1.00;99.90;;;;;;5068495;28;19915;-69
2021/03/24 01:19:16;;;;;;;;;;;1.00;99.90;;;;;;5067600;28;20006;-69
2021/03/24 01:21:41;;;;;;;;;;;0.90;99.90;;;;;;5068365;28;20434;-69
2021/03/24 01:24:07;;;;;;;;;;;0.90;99.90;;;;;;5068523;28;19996;-69
2021/03/24 01:26:32;;;;;;;;;;;0.80;99.90;;;;;;5067971;28;19919;-70
2021/03/24 01:28:58;;;;;;;;;;;0.90;99.90;;;;;;5068273;28;19916;-71
2021/03/24 01:31:24;;;;;;;;;;;0.80;99.90;;;;;;5067344;28;19913;-69
2021/03/24 01:33:50;;;;;;;;;;;0.80;99.90;;;;;;5067960;28;19908;-68
2021/03/24 01:36:15;;;;;;;;;;;0.80;99.90;;;;;;5068461;28;19915;-70
2021/03/24 01:38:41;;;;;;;;;;;0.80;99.90;;;;;;5068645;28;20287;-71
2021/03/24 01:41:06;;;;;;;;;;;0.80;99.90;;;;;;5067409;28;19958;-70
2021/03/24 01:43:33;;;;;;;;;;;0.80;99.90;;;;;;5068540;28;19919;-70
2021/03/24 01:46:17;;;;;;;;;;;0.80;99.90;;;;;;5067491;28;19915;-70
2021/03/24 01:49:03;;;;;;;;;;;0.70;99.90;;;;;;5068334;28;20063;-71
2021/03/24 01:51:36;;;;;;;;;;;0.70;99.90;;;;;;5051970;28;19912;-70
2021/03/24 01:54:03;;;;;;;;;;;0.70;99.90;;;;;;5068287;28;20045;-71
2021/03/24 01:56:29;;;;;;;;;;;0.60;99.90;;;;;;5067758;28;19909;-69
2021/03/24 01:58:55;;;;;;;;;;;0.60;99.90;;;;;;5067774;28;19913;-69
2021/03/24 02:01:22;;;;;;;;;;;0.70;99.90;;;;;;5064053;28;19995;-68
2021/03/24 02:03:48;;;;;;;;;;;0.60;99.90;;;;;;5067386;28;19912;-68
2021/03/24 02:06:20;;;;;;;;;;;0.60;99.90;;;;;;5067812;28;20137;-68
2021/03/24 02:08:48;;;;;;;;;;;0.50;99.90;;;;;;5070089;28;19941;-69
2021/03/24 02:11:19;;;;;;;;;;;0.50;99.90;;;;;;5070748;28;19919;-68
2021/03/24 02:13:48;;;;;;;;;;;0.50;99.90;;;;;;5071551;28;20291;-68
2021/03/24 02:16:15;;;;;;;;;;;0.40;99.90;;;;;;5071080;28;19920;-68
2021/03/24 02:18:41;;;;;;;;;;;0.40;99.90;;;;;;5071093;28;19912;-68
2021/03/24 02:21:08;;;;;;;;;;;0.40;99.90;;;;;;5070794;28;20339;-69
2021/03/24 02:23:36;;;;;;;;;;;0.30;99.90;;;;;;5071630;28;19920;-67
2021/03/24 02:26:12;;;;;;;;;;;0.30;99.90;;;;;;5070892;28;19955;-68
2021/03/24 02:28:39;;;;;;;;;;;0.40;99.90;;;;;;5072254;28;20468;-68
2021/03/24 02:31:05;;;;;;;;;;;0.50;99.90;;;;;;5069746;28;19913;-69
2021/03/24 02:33:34;;;;;;;;;;;0.40;99.90;;;;;;5071400;28;19919;-71
2021/03/24 02:36:01;;;;;;;;;;;0.40;99.90;;;;;;5070952;28;19908;-70
2021/03/24 02:38:28;;;;;;;;;;;0.30;99.90;;;;;;5071592;28;19913;-69
2021/03/24 02:40:54;;;;;;;;;;;0.30;99.90;;;;;;5070392;28;20000;-69
2021/03/24 02:43:20;;;;;;;;;;;0.30;99.90;;;;;;5071184;28;20269;-69
2021/03/24 02:45:46;;;;;;;;;;;0.30;99.90;;;;;;5069899;28;19915;-69
2021/03/24 02:48:14;;;;;;;;;;;0.20;99.90;;;;;;5071254;28;19974;-69
2021/03/24 02:50:41;;;;;;;;;;;0.10;99.90;;;;;;5070438;28;19935;-69
2021/03/24 02:53:07;;;;;;;;;;;0.00;99.90;;;;;;5069445;28;19912;-70
2021/03/24 02:55:33;;;;;;;;;;;0.00;99.90;;;;;;5070459;28;19908;-69
2021/03/24 02:57:59;;;;;;;;;;;0.00;99.90;;;;;;5071304;28;20310;-69
2021/03/24 03:00:25;;;;;;;;;;;0.00;99.90;;;;;;5069064;28;19912;-69
2021/03/24 03:02:56;;;;;;;;;;;0.00;99.90;;;;;;5069493;28;19919;-70
2021/03/24 03:05:24;;;;;;;;;;;0.00;99.90;;;;;;5070282;28;20376;-69
2021/03/24 03:08:08;;;;;;;;;;;0.00;99.90;;;;;;5070660;28;19958;-69
2021/03/24 03:10:44;;;;;;;;;;;0.00;99.90;;;;;;5069588;28;20363;-69
2021/03/24 03:13:13;;;;;;;;;;;0.00;99.90;;;;;;5070707;28;19984;-69
2021/03/24 03:15:45;;;;;;;;;;;0.10;99.90;;;;;;5069856;28;19912;-69
2021/03/24 03:18:31;;;;;;;;;;;0.10;99.90;;;;;;5070811;28;20020;-69
2021/03/24 03:20:58;;;;;;;;;;;0.10;99.90;;;;;;5069298;28;19909;-69
2021/03/24 03:23:26;;;;;;;;;;;0.10;99.90;;;;;;5070467;28;19920;-69
2021/03/24 03:25:58;;;;;;;;;;;0.00;99.90;;;;;;5069631;28;19913;-69
2021/03/24 03:28:24;;;;;;;;;;;0.00;99.90;;;;;;5070188;28;19935;-69
2021/03/24 03:30:51;;;;;;;;;;;-0.10;99.90;;;;;;5068358;28;19958;-69
2021/03/24 03:33:18;;;;;;;;;;;-0.20;99.90;;;;;;5069883;28;19947;-69
2021/03/24 03:35:44;;;;;;;;;;;-0.30;99.90;;;;;;5069440;28;19912;-72
2021/03/24 03:38:12;;;;;;;;;;;-0.30;99.90;;;;;;5070287;28;19908;-70
2021/03/24 03:40:39;;;;;;;;;;;-0.40;99.90;;;;;;5068819;28;20340;-70
2021/03/24 03:43:06;;;;;;;;;;;-0.40;99.90;;;;;;5070416;28;19919;-70
2021/03/24 03:45:32;;;;;;;;;;;-0.40;99.90;;;;;;5069134;28;19919;-69
2021/03/24 03:47:58;;;;;;;;;;;-0.40;99.90;;;;;;5069774;28;19978;-69
2021/03/24 03:50:25;;;;;;;;;;;-0.40;99.90;;;;;;5068138;28;20016;-69
2021/03/24 03:52:53;;;;;;;;;;;-0.30;99.90;;;;;;5068522;28;19946;-69
2021/03/24 03:55:36;;;;;;;;;;;-0.30;99.90;;;;;;5069316;28;20423;-69
2021/03/24 03:58:05;;;;;;;;;;;-0.30;99.90;;;;;;5069606;28;19916;-69
2021/03/24 04:00:33;;;;;;;;;;;-0.20;99.90;;;;;;5067624;28;19932;-69
2021/03/24 04:03:10;;;;;;;;;;;-0.10;99.90;;;;;;5069215;28;19912;-69
2021/03/24 04:05:38;;;;;;;;;;;-0.10;99.90;;;;;;5068862;28;19920;-69
2021/03/24 04:08:08;;;;;;;;;;;-0.30;99.90;;;;;;5069298;28;19909;-69
2021/03/24 04:10:34;;;;;;;;;;;-0.30;99.90;;;;;;5068138;28;19924;-69
2021/03/24 04:13:01;;;;;;;;;;;-0.40;99.90;;;;;;5069028;28;20362;-69
2021/03/24 04:15:27;;;;;;;;;;;-0.40;99.90;;;;;;5067378;28;20011;-69
2021/03/24 04:17:56;;;;;;;;;;;-0.50;99.90;;;;;;5069288;28;19997;-69
2021/03/24 04:20:23;;;;;;;;;;;-0.50;99.90;;;;;;5067531;28;19916;-69
2021/03/24 04:22:50;;;;;;;;;;;-0.40;99.90;;;;;;5069402;28;19913;-69
2021/03/24 04:25:27;;;;;;;;;;;-0.30;99.90;;;;;;5069012;28;19909;-69
2021/03/24 04:27:55;;;;;;;;;;;-0.20;99.90;;;;;;5069554;28;19916;-69
2021/03/24 04:30:24;;;;;;;;;;;-0.20;99.90;;;;;;5067509;28;19942;-69
2021/03/24 04:32:50;;;;;;;;;;;-0.30;99.90;;;;;;5069610;28;20461;-69
2021/03/24 04:35:19;;;;;;;;;;;-0.20;99.90;;;;;;5069044;28;20011;-69
2021/03/24 04:37:46;;;;;;;;;;;-0.20;99.90;;;;;;5069537;28;19908;-69
2021/03/24 04:40:23;;;;;;;;;;;-0.30;99.90;;;;;;5067565;28;19916;-69
2021/03/24 04:42:52;;;;;;;;;;;-0.30;99.90;;;;;;5069177;28;19915;-69
2021/03/24 04:45:17;;;;;;;;;;;-0.40;99.90;;;;;;5068134;28;20035;-68
2021/03/24 04:47:46;;;;;;;;;;;-0.50;99.90;;;;;;5068907;28;19908;-69
2021/03/24 04:50:21;;;;;;;;;;;-0.50;99.90;;;;;;5067052;28;20304;-69
2021/03/24 04:52:47;;;;;;;;;;;-0.50;99.90;;;;;;5066810;28;19912;-69
2021/03/24 04:55:14;;;;;;;;;;;-0.50;99.90;;;;;;5068203;28;19916;-69
2021/03/24 04:57:40;;;;;;;;;;;-0.50;99.90;;;;;;5068958;28;20625;-69
2021/03/24 05:00:23;;;;;;;;;;;-0.60;99.90;;;;;;5066943;28;19909;-69
2021/03/24 05:02:51;;;;;;;;;;;-0.70;99.90;;;;;;5068806;28;19924;-69
2021/03/24 05:05:20;;;;;;;;;;;-0.70;99.90;;;;;;5067800;28;19908;-69
2021/03/24 05:07:54;;;;;;;;;;;-0.70;99.90;;;;;;5069053;28;19931;-69
2021/03/24 05:10:27;;;;;;;;;;;-0.60;99.90;;;;;;5067065;28;20011;-69
2021/03/24 05:12:58;;;;;;;;;;;-0.50;99.90;;;;;;5068207;28;19934;-69
2021/03/24 05:15:30;;;;;;;;;;;-0.50;99.90;;;;;;5067713;28;19916;-69
2021/03/24 05:17:56;;;;;;;;;;;-0.60;99.90;;;;;;5067888;28;19912;-69
2021/03/24 05:20:21;;;;;;;;;;;-0.50;99.90;;;;;;5067022;28;19919;-69
2021/03/24 05:22:47;;;;;;;;;;;-0.50;99.90;;;;;;5068614;28;19916;-69
2021/03/24 05:25:45;;;;;;;;;;;-0.50;99.90;;;;;;5067940;28;19912;-69
2021/03/24 05:28:19;;;;;;;;;;;-0.40;99.90;;;;;;5022996;28;19913;-69
2021/03/24 05:30:50;;;;;;;;;;;-0.20;99.90;;;;;;5048674;28;19932;-70
2021/03/24 05:33:21;;;;;;;;;;;0.00;99.90;;;;;;5068284;28;19919;-69
2021/03/24 05:35:50;;;;;;;;;;;0.20;99.90;;;;;;5062552;28;19909;-70
2021/03/24 05:38:18;;;;;;;;;;;0.50;99.90;;;;;;5067329;28;19995;-69
2021/03/24 05:41:04;;;;;;;;;;;0.90;99.90;;;;;;5067135;28;20438;-69
2021/03/24 05:43:32;;;;;;;;;;;1.20;99.90;;;;;;5069703;28;19909;-69
2021/03/24 05:46:02;;;;;;;;;;;1.50;99.90;;;;;;5071831;28;20407;-69
2021/03/24 05:48:43;;;;;;;;;;;2.00;99.90;;;;;;5072340;28;19916;-69
2021/03/24 05:51:19;;;;;;;;;;;2.50;99.90;;;;;;5071127;28;19912;-69
2021/03/24 05:53:48;;;;;;;;;;;2.90;99.90;;;;;;5072493;28;19924;-69
2021/03/24 05:56:32;;;;;;;;;;;3.50;99.90;;;;;;5071041;28;20015;-72
2021/03/24 05:59:16;;;;;;;;;;;4.20;99.90;;;;;;5071412;28;19908;-69
2021/03/24 06:01:54;;;;;;;;;;;4.60;99.90;;;;;;5070393;28;19969;-69
2021/03/24 06:04:22;;;;;;;;;;;5.40;99.90;;;;;;5069603;28;19912;-71
2021/03/24 06:07:17;;;;;;;;;;;5.90;99.90;;;;;;5070418;28;19909;-68
2021/03/24 06:10:02;;;;;;;;;;;6.50;99.90;;;;;;5062689;28;20322;-71
2021/03/24 06:12:46;;;;;;;;;;;7.20;99.90;;;;;;5069437;28;19924;-70
2021/03/24 06:15:17;;;;;;;;;;;7.90;99.90;;;;;;5089515;28;20317;-71
2021/03/24 06:18:03;;;;;;;;;;;8.70;99.90;;;;;;5070848;28;19912;-71
2021/03/24 06:20:35;;;;;;;;;;;9.20;99.90;;;;;;5058738;28;20432;-71
2021/03/24 06:23:23;;;;;;;;;;;10.00;99.90;;;;;;5057089;28;19920;-71
2021/03/24 06:26:04;;;;;;;;;;;10.70;99.90;;;;;;5064050;28;20321;-69
2021/03/24 06:28:53;;;;;;;;;;;11.50;99.90;;;;;;5062201;28;19912;-71
2021/03/24 06:31:28;;;;;;;;;;;11.90;97.80;;;;;;5054653;28;19924;-71
2021/03/24 06:34:02;;;;;;;;;;;12.20;95.40;;;;;;5063932;28;20021;-70
2021/03/24 06:36:46;;;;;;;;;;;12.60;94.10;;;;;;5067730;28;19958;-70
2021/03/24 06:39:14;;;;;;;;;;;13.30;92.10;;;;;;5069006;28;19953;-70
2021/03/24 06:41:46;;;;;;;;;;;13.40;90.40;;;;;;5069475;28;19915;-72
2021/03/24 06:44:21;;;;;;;;;;;14.10;88.30;;;;;;5069548;28;19942;-69
2021/03/24 06:46:52;;;;;;;;;;;14.80;84.10;;;;;;5068249;28;19920;-69
2021/03/24 06:49:17;;;;;;;;;;;15.80;78.00;;;;;;5068728;28;19915;-69
2021/03/24 06:51:48;;;;;;;;;;;16.50;72.40;;;;;;5068775;28;20656;-70
2021/03/24 06:54:32;;;;;;;;;;;16.70;69.00;;;;;;5073902;28;19952;-69
2021/03/24 06:57:00;;;;;;;;;;;17.50;65.60;;;;;;5068687;28;19908;-70
2021/03/24 06:59:44;;;;;;;;;;;18.60;60.10;;;;;;5067857;28;19962;-71
2021/03/24 07:02:12;;;;;;;;;;;19.30;56.70;;;;;;5078798;28;19916;-72
2021/03/24 07:04:56;;;;;;;;;;;19.90;53.70;;;;;;5069034;28;19916;-69
2021/03/24 07:07:38;;;;;;;;;;;20.60;51.50;;;;;;5068729;28;20007;-69
2021/03/24 07:10:09;;;;;;;;;;;20.90;49.80;;;;;;5067231;28;20381;-69
2021/03/24 07:13:13;;;;;;;;;;;21.80;46.90;;;;;;5068822;28;20195;-69
2021/03/24 07:15:42;;;;;;;;;;;22.40;45.00;;;;;;4976592;28;19914;-68
2021/03/24 07:18:21;;;;;;;;;;;23.00;42.60;;;;;;4966731;28;20026;-70
2021/03/24 07:20:47;;;;;;;;;;;24.10;41.10;;;;;;5012907;28;19916;-69
2021/03/24 07:23:31;;;;;;;;;;;25.00;38.70;;;;;;5048653;28;19913;-70
2021/03/24 07:26:04;;;;;;;;;;;25.60;37.20;;;;;;5048221;28;19995;-68
2021/03/24 07:28:29;;;;;;;;;;;26.20;35.80;;;;;;5061765;28;19999;-69
2021/03/24 07:31:09;;;;;;;;;;;27.00;34.10;;;;;;5066445;28;20337;-70
2021/03/24 07:33:43;;;;;;;;;;;27.80;32.00;;;;;;5068666;28;20825;-70
2021/03/24 07:36:21;;;;;;;;;;;28.70;30.30;;;;;;5067851;28;19912;-68
2021/03/24 07:38:53;;;;;;;;;;;29.00;29.40;;;;;;5050709;28;19918;-70
2021/03/24 07:41:18;;;;;;;;;;;30.10;28.00;;;;;;5069193;28;19995;-70
2021/03/24 07:43:59;;;;;;;;;;;31.00;26.70;;;;;;5069930;28;19954;-71
2021/03/24 07:46:30;;;;;;;;;;;31.70;25.80;;;;;;5069408;28;20015;-70
2021/03/24 07:49:05;;;;;;;;;;;30.90;24.80;;;;;;5069240;28;20384;-70
2021/03/24 07:51:30;;;;;;;;;;;27.40;25.50;;;;;;5069863;28;20357;-70
2021/03/24 07:53:59;;;;;;;;;;;29.20;26.30;;;;;;5069924;28;19909;-70
2021/03/24 07:56:32;;;;;;;;;;;30.50;25.60;;;;;;5069651;28;20012;-70
2021/03/24 07:59:13;;;;;;;;;;;29.40;24.20;;;;;;5069970;28;19962;-70
2021/03/24 08:01:41;;;;;;;;;;;29.30;25.20;;;;;;5068900;28;19916;-70
2021/03/24 08:04:26;;;;;;;;;;;30.30;25.00;;;;;;5069011;28;20214;-70
2021/03/24 08:07:10;;;;;;;;;;;30.10;25.40;;;;;;5069404;28;19913;-70
2021/03/24 08:09:39;;;;;;;;;;;31.80;24.50;;;;;;5068356;28;20233;-71
2021/03/24 08:12:23;;;;;;;;;;;32.80;23.50;;;;;;5068635;28;19908;-72
2021/03/24 08:14:52;;;;;;;;;;;34.10;22.40;;;;;;5068252;28;20034;-70
2021/03/24 08:17:29;;;;;;;;;;;35.50;21.20;;;;;;5069265;28;19908;-70
2021/03/24 08:20:07;;;;;;;;;;;36.30;20.50;;;;;;5067554;28;19913;-71
2021/03/24 08:22:44;;;;;;;;;;;36.80;20.10;;;;;;5068600;28;20084;-70
2021/03/24 08:25:16;;;;;;;;;;;37.00;19.80;;;;;;5067988;28;20003;-71
2021/03/24 08:27:56;;;;;;;;;;;37.70;19.20;;;;;;5068665;28;20038;-71
2021/03/24 08:30:24;;;;;;;;;;;37.90;18.70;;;;;;5067157;28;19936;-70
2021/03/24 08:33:08;;;;;;;;;;;37.70;18.60;;;;;;5068651;28;20459;-70
2021/03/24 08:35:43;;;;;;;;;;;37.70;18.20;;;;;;5068325;28;19919;-70
2021/03/24 08:38:34;;;;;;;;;;;38.10;17.60;;;;;;5068865;28;19915;-70
2021/03/24 08:41:05;;;;;;;;;;;37.60;17.80;;;;;;5067587;28;20362;-71
2021/03/24 08:43:30;;;;;;;;;;;38.40;17.50;;;;;;5068872;28;19953;-70
2021/03/24 08:46:00;;;;;;;;;;;38.70;17.20;;;;;;5067455;28;20112;-71
2021/03/24 08:48:34;;;;;;;;;;;38.50;16.90;;;;;;5068320;28;19912;-71
2021/03/24 08:51:29;;;;;;;;;;;38.90;16.90;;;;;;5067801;28;19912;-71
2021/03/24 08:54:01;;;;;;;;;;;38.90;16.70;;;;;;5054462;28;20408;-70
2021/03/24 08:56:40;;;;;;;;;;;38.10;17.40;;;;;;5067985;28;19908;-70
2021/03/24 08:59:08;;;;;;;;;;;39.40;16.90;;;;;;5067750;28;20387;-70
2021/03/24 09:01:34;;;;;;;;;;;40.00;16.70;;;;;;5067918;28;19942;-70
2021/03/24 09:04:15;;;;;;;;;;;41.30;16.10;;;;;;5067634;28;19912;-69
2021/03/24 09:06:40;;;;;;;;;;;41.60;15.30;;;;;;5068400;28;19916;-70
2021/03/24 09:09:09;;;;;;;;;;;42.40;15.10;;;;;;5067501;28;19908;-70
2021/03/24 09:11:43;;;;;;;;;;;41.90;14.90;;;;;;5067463;28;19924;-70
2021/03/24 09:14:09;;;;;;;;;;;41.40;15.00;;;;;;5068181;28;20058;-69
2021/03/24 09:16:37;;;;;;;;;;;41.80;14.70;;;;;;5067414;28;20011;-69
2021/03/24 09:19:09;;;;;;;;;;;40.60;15.00;;;;;;5049126;28;20240;-72
2021/03/24 09:21:46;;;;;;;;;;;40.60;15.10;;;;;;5068149;28;20061;-72
2021/03/24 09:24:12;;;;;;;;;;;40.80;14.80;;;;;;5068206;28;19977;-69
2021/03/24 09:26:56;;;;;;;;;;;40.80;14.70;;;;;;5067915;28;20365;-69
2021/03/24 09:29:22;;;;;;;;;;;41.70;14.30;;;;;;5067744;28;19908;-71
2021/03/24 09:32:06;;;;;;;;;;;40.70;14.20;;;;;;5067446;28;19908;-70
2021/03/24 09:34:58;;;;;;;;;;;39.40;15.00;;;;;;5067863;28;19916;-69
2021/03/24 09:37:35;;;;;;;;;;;39.20;15.50;;;;;;5068218;28;19966;-71
2021/03/24 09:40:04;;;;;;;;;;;38.90;15.10;;;;;;5066829;28;20007;-69
2021/03/24 09:42:35;;;;;;;;;;;39.80;15.40;;;;;;5067940;28;20037;-70
2021/03/24 09:45:07;;;;;;;;;;;40.80;15.20;;;;;;5049424;28;19912;-69
2021/03/24 09:47:32;;;;;;;;;;;37.60;15.00;;;;;;5067828;28;19916;-69
2021/03/24 09:50:05;;;;;;;;;;;37.10;16.40;;;;;;5066706;28;20006;-69
2021/03/24 09:52:44;;;;;;;;;;;37.40;16.60;;;;;;5068446;28;19955;-72
2021/03/24 09:55:20;;;;;;;;;;;36.30;16.90;;;;;;5069241;28;19981;-73
2021/03/24 09:57:48;;;;;;;;;;;35.30;17.90;;;;;;5069775;28;19919;-70
2021/03/24 10:00:15;;;;;;;;;;;36.40;17.60;;;;;;5067321;28;20035;-70
2021/03/24 10:02:45;;;;;;;;;;;38.40;17.20;;;;;;5067911;28;19916;-72
2021/03/24 10:05:13;;;;;;;;;;;38.40;16.90;;;;;;5067845;28;19920;-72
2021/03/24 10:07:44;;;;;;;;;;;37.80;16.70;;;;;;5067761;28;19913;-72
2021/03/24 10:10:12;;;;;;;;;;;37.00;17.40;;;;;;5066530;28;19919;-73
2021/03/24 10:12:38;;;;;;;;;;;34.70;17.20;;;;;;5068434;28;19917;-72
2021/03/24 10:15:03;;;;;;;;;;;33.60;18.50;;;;;;5069987;28;19991;-72
2021/03/24 10:17:34;;;;;;;;;;;32.70;20.30;;;;;;5068794;28;19947;-71
2021/03/24 10:20:15;;;;;;;;;;;32.80;20.00;;;;;;5067219;28;20018;-72
2021/03/24 10:22:46;;;;;;;;;;;30.40;19.20;;;;;;5069145;28;20427;-72
2021/03/24 10:25:19;;;;;;;;;;;32.60;20.50;;;;;;5068314;28;19913;-72
2021/03/24 10:27:46;;;;;;;;;;;32.70;20.50;;;;;;5068798;28;19927;-72
2021/03/24 10:30:12;;;;;;;;;;;34.00;19.30;;;;;;5068996;28;20337;-72
2021/03/24 10:32:40;;;;;;;;;;;33.80;19.40;;;;;;5070741;28;19913;-70
2021/03/24 10:35:12;;;;;;;;;;;31.50;20.00;;;;;;5070761;28;20291;-71
2021/03/24 10:37:58;;;;;;;;;;;30.60;21.20;;;;;;5071242;28;19909;-68
2021/03/24 10:40:28;;;;;;;;;;;30.80;21.30;;;;;;5069686;28;19912;-68
2021/03/24 10:43:07;;;;;;;;;;;30.90;20.50;;;;;;5071095;28;20233;-69
2021/03/24 10:45:35;;;;;;;;;;;30.00;21.70;;;;;;5070593;28;19915;-68
2021/03/24 10:48:14;;;;;;;;;;;30.00;21.30;;;;;;5071476;28;19912;-68
2021/03/24 10:51:03;;;;;;;;;;;29.80;21.50;;;;;;5069743;28;19916;-69
2021/03/24 10:53:30;;;;;;;;;;;27.40;23.00;;;;;;5062712;28;19974;-71
2021/03/24 10:56:00;;;;;;;;;;;26.80;23.50;;;;;;5070641;28;19909;-69
2021/03/24 10:58:45;;;;;;;;;;;27.10;24.00;;;;;;5070767;28;19908;-70
2021/03/24 11:01:29;;;;;;;;;;;27.80;23.40;;;;;;5069416;28;19971;-70
2021/03/24 11:04:11;;;;;;;;;;;27.60;23.70;;;;;;5070411;28;20300;-70
2021/03/24 11:06:40;;;;;;;;;;;27.60;23.90;;;;;;5070792;28;19947;-71
2021/03/24 11:09:13;;;;;;;;;;;27.70;23.60;;;;;;5070398;28;20250;-71
2021/03/24 11:11:39;;;;;;;;;;;28.10;23.30;;;;;;5070003;28;20377;-70
2021/03/24 11:14:12;;;;;;;;;;;27.30;23.60;;;;;;5070588;28;19908;-71
2021/03/24 11:17:00;;;;;;;;;;;26.30;23.90;;;;;;5069974;28;19913;-70
2021/03/24 11:19:32;;;;;;;;;;;26.00;25.10;;;;;;5069787;28;19909;-70
2021/03/24 11:22:04;;;;;;;;;;;26.10;25.20;;;;;;5071277;28;19909;-70
2021/03/24 11:24:48;;;;;;;;;;;26.60;25.00;;;;;;5070973;28;19920;-70
2021/03/24 11:27:17;;;;;;;;;;;27.10;24.60;;;;;;5071008;28;19923;-70
2021/03/24 11:29:45;;;;;;;;;;;27.40;24.20;;;;;;5069479;28;20008;-70
2021/03/24 11:32:21;;;;;;;;;;;27.60;24.10;;;;;;5070112;28;20395;-70
2021/03/24 11:34:52;;;;;;;;;;;27.60;24.10;;;;;;5069770;28;20007;-71
2021/03/24 11:37:30;;;;;;;;;;;27.30;24.00;;;;;;5070118;28;19920;-70
2021/03/24 11:40:03;;;;;;;;;;;27.20;23.80;;;;;;5068721;28;19981;-70
2021/03/24 11:42:29;;;;;;;;;;;27.00;24.00;;;;;;5069726;28;19979;-70
2021/03/24 11:44:55;;;;;;;;;;;27.00;24.40;;;;;;5069883;28;19912;-70
2021/03/24 11:47:39;;;;;;;;;;;26.90;24.30;;;;;;5069833;28;19919;-70
2021/03/24 11:50:05;;;;;;;;;;;26.90;24.20;;;;;;5068964;28;19920;-70
2021/03/24 11:52:30;;;;;;;;;;;26.90;24.30;;;;;;5069631;28;20379;-71
2021/03/24 11:54:56;;;;;;;;;;;26.70;24.40;;;;;;5069527;28;19912;-71
2021/03/24 11:57:32;;;;;;;;;;;26.50;24.70;;;;;;5069819;28;19909;-71
2021/03/24 12:00:00;;;;;;;;;;;26.40;24.90;;;;;;5068494;28;20329;-71
2021/03/24 12:02:37;;;;;;;;;;;26.50;25.00;;;;;;5068823;28;19909;-70
2021/03/24 12:05:16;;;;;;;;;;;26.30;25.20;;;;;;5068824;28;19908;-70
2021/03/24 12:07:41;;;;;;;;;;;26.00;25.60;;;;;;5069680;28;19916;-70
2021/03/24 12:10:13;;;;;;;;;;;25.80;25.60;;;;;;5068130;28;19916;-72
2021/03/24 12:12:38;;;;;;;;;;;25.60;25.80;;;;;;5069544;28;19924;-72
2021/03/24 12:15:22;;;;;;;;;;;25.40;25.70;;;;;;5070577;28;19909;-71
2021/03/24 12:17:48;;;;;;;;;;;25.10;26.40;;;;;;5071386;28;20049;-72
2021/03/24 12:20:14;;;;;;;;;;;25.00;26.40;;;;;;5068910;28;20026;-73
2021/03/24 12:22:49;;;;;;;;;;;24.80;26.20;;;;;;5056323;28;19912;-70
2021/03/24 12:25:17;;;;;;;;;;;24.60;25.50;;;;;;5050200;28;19909;-70
2021/03/24 12:27:44;;;;;;;;;;;24.40;26.20;;;;;;5048280;28;19999;-70
2021/03/24 12:30:24;;;;;;;;;;;24.20;26.40;;;;;;5048523;28;20397;-71
2021/03/24 12:32:50;;;;;;;;;;;23.90;26.60;;;;;;5049617;28;19917;-70
2021/03/24 12:35:22;;;;;;;;;;;23.90;27.20;;;;;;5048950;28;19909;-71
2021/03/24 12:37:50;;;;;;;;;;;23.80;27.20;;;;;;5049815;28;19991;-71
2021/03/24 12:40:20;;;;;;;;;;;23.60;27.50;;;;;;5048566;28;19916;-71
2021/03/24 12:42:47;;;;;;;;;;;23.50;27.30;;;;;;5051415;28;19931;-73
2021/03/24 12:45:25;;;;;;;;;;;23.20;27.30;;;;;;5050847;28;19909;-73
2021/03/24 12:48:01;;;;;;;;;;;22.90;26.90;;;;;;5051786;28;19920;-70
2021/03/24 12:50:27;;;;;;;;;;;22.80;27.10;;;;;;5050124;28;20021;-71
2021/03/24 12:52:56;;;;;;;;;;;22.60;27.30;;;;;;5050595;28;19913;-71
2021/03/24 12:55:22;;;;;;;;;;;22.50;27.80;;;;;;5048429;28;20285;-71
2021/03/24 12:57:47;;;;;;;;;;;22.20;26.80;;;;;;5049081;28;19909;-71
2021/03/24 13:00:33;;;;;;;;;;;22.10;26.50;;;;;;5047090;28;19912;-70
2021/03/24 13:03:01;;;;;;;;;;;21.90;27.00;;;;;;5048847;28;20258;-71
2021/03/24 13:05:27;;;;;;;;;;;21.70;27.60;;;;;;5048060;28;19908;-71
2021/03/24 13:07:52;;;;;;;;;;;21.40;28.30;;;;;;5048908;28;19909;-71
2021/03/24 13:10:27;;;;;;;;;;;21.20;28.90;;;;;;5047017;28;19913;-71
2021/03/24 13:12:59;;;;;;;;;;;21.30;29.10;;;;;;5048540;28;19928;-69
2021/03/24 13:15:29;;;;;;;;;;;21.20;28.80;;;;;;5047046;28;20337;-70
2021/03/24 13:17:59;;;;;;;;;;;21.00;28.20;;;;;;5048647;28;19944;-70
2021/03/24 13:20:27;;;;;;;;;;;20.80;27.80;;;;;;5047447;28;20385;-70
2021/03/24 13:22:56;;;;;;;;;;;20.60;27.50;;;;;;5048599;28;19936;-70
2021/03/24 13:25:37;;;;;;;;;;;20.40;27.90;;;;;;5047966;28;19940;-69
2021/03/24 13:28:21;;;;;;;;;;;20.10;27.50;;;;;;5048861;28;19916;-69
2021/03/24 13:30:47;;;;;;;;;;;;;;;;;;5046862;28;20257;-70
2021/03/24 13:33:19;;;;;;;;;;;19.30;28.40;;;;;;5048680;28;19919;-70
2021/03/24 13:35:44;;;;;;;;;;;19.00;29.40;;;;;;5048243;28;20019;-68
2021/03/24 13:38:17;;;;;;;;;;;18.70;30.60;;;;;;5048752;28;20067;-69
2021/03/24 13:40:43;;;;;;;;;;;18.30;31.10;;;;;;5047476;28;19909;-69
2021/03/24 13:43:14;;;;;;;;;;;17.70;31.40;;;;;;5048941;28;19931;-69
2021/03/24 13:45:45;;;;;;;;;;;17.40;32.20;;;;;;5047743;28;19917;-68
2021/03/24 13:48:19;;;;;;;;;;;17.20;31.90;;;;;;5061835;28;19916;-71
2021/03/24 13:50:54;;;;;;;;;;;17.00;30.70;;;;;;5067288;28;20394;-70
2021/03/24 13:53:23;;;;;;;;;;;17.00;30.00;;;;;;5068492;28;20379;-70
2021/03/24 13:55:57;;;;;;;;;;;17.00;29.30;;;;;;5067808;28;19912;-70
2021/03/24 13:58:39;;;;;;;;;;;16.90;29.10;;;;;;5068511;28;19912;-70
2021/03/24 14:01:10;;;;;;;;;;;16.80;29.70;;;;;;5066412;28;19932;-70
2021/03/24 14:03:42;;;;;;;;;;;16.60;29.10;;;;;;5069773;28;20022;-70
2021/03/24 14:06:22;;;;;;;;;;;16.60;29.30;;;;;;5072410;28;20011;-70
2021/03/24 14:08:51;;;;;;;;;;;16.60;30.00;;;;;;5072240;28;19912;-70
2021/03/24 14:11:31;;;;;;;;;;;16.50;30.60;;;;;;5070146;28;20483;-70
2021/03/24 14:14:02;;;;;;;;;;;16.40;30.10;;;;;;5071906;28;20214;-70
2021/03/24 14:16:41;;;;;;;;;;;16.30;31.00;;;;;;5070456;28;19915;-70
2021/03/24 14:19:09;;;;;;;;;;;16.00;32.80;;;;;;5070633;28;19909;-70
2021/03/24 14:21:53;;;;;;;;;;;16.00;35.20;;;;;;5071123;28;19915;-70
2021/03/24 14:24:38;;;;;;;;;;;15.90;34.50;;;;;;5065410;28;19981;-69
2021/03/24 14:27:06;;;;;;;;;;;16.00;34.70;;;;;;5071095;28;19954;-70
2021/03/24 14:29:31;;;;;;;;;;;16.10;34.20;;;;;;5068679;28;19912;-69
2021/03/24 14:32:12;;;;;;;;;;;16.00;33.80;;;;;;5071089;28;19912;-70
2021/03/24 14:34:43;;;;;;;;;;;16.00;33.20;;;;;;5073935;28;19915;-70
2021/03/24 14:37:27;;;;;;;;;;;15.80;32.90;;;;;;5072436;28;19966;-70
2021/03/24 14:40:02;;;;;;;;;;;15.80;34.00;;;;;;5070064;28;19956;-70
2021/03/24 14:42:27;;;;;;;;;;;15.70;33.60;;;;;;5070801;28;19909;-69
2021/03/24 14:45:12;;;;;;;;;;;15.80;33.70;;;;;;5070440;28;20286;-70
2021/03/24 14:47:56;;;;;;;;;;;15.70;33.90;;;;;;5067580;28;20297;-70